Time;durP1;ratioP1;P1;durP2;ratioP2;P2;SDS_P1;SDS_P2;PMS_P1;PMS_P2;Temp;Humidity;BMP_temperature;BMP_pressure;BME280_temperature;BME280_humidity;BME280_pressure;Samples;Min_cycle;Max_cycle;Signal;HPM_P1;HPM_P2
2022/01/13 00:00:34;;;;;;;37.70;16.77;;;8.60;99.90;;;;;;5070820;28;20235;-80
2022/01/13 00:03:01;;;;;;;39.53;16.43;;;8.60;99.90;;;;;;5049709;28;20797;-80
2022/01/13 00:05:30;;;;;;;28.27;15.10;;;8.50;99.90;;;;;;5070601;28;20227;-80
2022/01/13 00:07:58;;;;;;;34.93;15.93;;;8.50;99.90;;;;;;5070419;28;20293;-81
2022/01/13 00:10:26;;;;;;;33.97;16.00;;;8.50;99.90;;;;;;5052474;28;20239;-80
2022/01/13 00:12:58;;;;;;;32.63;15.77;;;8.50;99.90;;;;;;5069911;28;21012;-80
2022/01/13 00:15:37;;;;;;;37.23;15.67;;;8.50;99.90;;;;;;5071929;28;21008;-80
2022/01/13 00:18:10;;;;;;;35.73;17.03;;;8.50;99.90;;;;;;5070341;28;20584;-80
2022/01/13 00:23:41;;;;;;;37.17;15.37;;;8.50;99.90;;;;;;5048552;28;20531;-80
2022/01/13 00:26:15;;;;;;;31.27;15.60;;;8.50;99.90;;;;;;5046731;28;20796;-80
2022/01/13 00:28:44;;;;;;;39.00;16.97;;;8.50;99.90;;;;;;5048645;28;20304;-80
2022/01/13 00:31:11;;;;;;;38.87;16.57;;;8.50;99.90;;;;;;5066894;28;20239;-81
2022/01/13 00:33:43;;;;;;;40.77;16.63;;;8.50;99.90;;;;;;5050939;28;20239;-80
2022/01/13 00:36:10;;;;;;;34.67;15.80;;;8.50;99.90;;;;;;5052037;28;20230;-80
2022/01/13 00:38:39;;;;;;;31.17;15.13;;;8.50;99.90;;;;;;5069967;28;20235;-80
2022/01/13 00:41:06;;;;;;;36.60;16.50;;;8.50;99.90;;;;;;5050783;28;20232;-79
2022/01/13 00:43:36;;;;;;;40.73;17.50;;;8.50;99.90;;;;;;5051602;28;20233;-80
2022/01/13 00:46:03;;;;;;;39.83;17.43;;;8.50;99.90;;;;;;5071699;28;20323;-80
2022/01/13 00:48:30;;;;;;;35.17;16.87;;;8.50;99.90;;;;;;5070053;28;20234;-80
2022/01/13 00:50:56;;;;;;;38.30;16.83;;;8.50;99.90;;;;;;5051765;28;20732;-80
2022/01/13 00:53:23;;;;;;;41.37;17.10;;;8.50;99.90;;;;;;5050816;28;20716;-79
2022/01/13 00:55:58;;;;;;;41.67;17.60;;;8.50;99.90;;;;;;5069942;28;20330;-80
2022/01/13 00:58:27;;;;;;;47.00;17.37;;;8.50;99.90;;;;;;5055790;28;20971;-80
2022/01/13 01:00:54;;;;;;;38.73;17.20;;;8.50;99.90;;;;;;5068387;28;20234;-79
2022/01/13 01:03:21;;;;;;;36.47;17.10;;;8.50;99.90;;;;;;5066051;28;20335;-79
2022/01/13 01:05:48;;;;;;;40.73;18.23;;;8.50;99.90;;;;;;5051306;28;20231;-80
2022/01/13 01:08:15;;;;;;;37.83;17.87;;;8.50;99.90;;;;;;5068389;28;20227;-79
2022/01/13 01:10:45;;;;;;;42.53;17.37;;;8.50;99.90;;;;;;5069195;28;20236;-79
2022/01/13 01:13:15;;;;;;;37.97;16.00;;;8.50;99.90;;;;;;5067868;28;20252;-80
2022/01/13 01:15:47;;;;;;;45.17;18.47;;;8.50;99.90;;;;;;5051415;28;20309;-80
2022/01/13 01:18:25;;;;;;;37.93;17.00;;;8.50;99.90;;;;;;5068191;28;20238;-80
2022/01/13 01:21:14;;;;;;;39.33;17.70;;;8.50;99.90;;;;;;5049773;28;20230;-79
2022/01/13 01:23:59;;;;;;;43.43;17.57;;;8.60;99.90;;;;;;5067383;28;20812;-80
2022/01/13 01:26:35;;;;;;;43.07;17.40;;;8.60;99.90;;;;;;5066744;28;20284;-79
2022/01/13 01:29:12;;;;;;;41.27;18.03;;;8.60;99.90;;;;;;5068921;28;20231;-80
2022/01/13 01:31:45;;;;;;;36.97;17.40;;;8.60;99.90;;;;;;5068675;28;20252;-80
2022/01/13 01:34:22;;;;;;;42.40;18.90;;;8.60;99.90;;;;;;5067840;28;20246;-80
2022/01/13 01:36:50;;;;;;;46.70;17.63;;;8.60;99.90;;;;;;5069252;28;20223;-80
2022/01/13 01:39:16;;;;;;;39.40;17.13;;;8.60;99.90;;;;;;5068694;28;20223;-80
2022/01/13 01:41:46;;;;;;;41.77;18.60;;;8.70;99.90;;;;;;5050629;28;20814;-79
2022/01/13 01:44:17;;;;;;;42.27;18.87;;;8.60;99.90;;;;;;5067474;28;20223;-80
2022/01/13 01:46:46;;;;;;;47.40;19.37;;;8.60;99.90;;;;;;5065508;28;20243;-78
2022/01/13 01:49:17;;;;;;;43.10;19.27;;;8.70;99.90;;;;;;5063576;28;20263;-78
2022/01/13 01:51:45;;;;;;;44.67;18.07;;;8.70;99.90;;;;;;5065544;28;20242;-78
2022/01/13 01:54:12;;;;;;;44.37;17.77;;;8.70;99.90;;;;;;5062972;28;20716;-79
2022/01/13 01:56:39;;;;;;;51.00;20.37;;;8.70;99.90;;;;;;5064652;28;20234;-79
2022/01/13 01:59:07;;;;;;;43.60;19.70;;;8.70;99.90;;;;;;5063941;28;20235;-79
2022/01/13 02:01:35;;;;;;;61.07;20.37;;;8.70;99.90;;;;;;5066846;28;20220;-79
2022/01/13 02:04:02;;;;;;;48.90;20.03;;;8.70;99.90;;;;;;5068292;28;20238;-79
2022/01/13 02:06:29;;;;;;;46.33;19.40;;;8.70;99.90;;;;;;5068277;28;20271;-79
2022/01/13 02:08:57;;;;;;;52.20;20.07;;;8.70;99.90;;;;;;5068921;28;20346;-79
2022/01/13 02:11:24;;;;;;;43.77;19.13;;;8.70;99.90;;;;;;5068459;28;20234;-80
2022/01/13 02:13:53;;;;;;;46.10;20.37;;;8.70;99.90;;;;;;5069307;28;20256;-79
2022/01/13 02:16:38;;;;;;;46.53;20.03;;;8.70;99.90;;;;;;5052220;28;20312;-79
2022/01/13 02:19:07;;;;;;;46.73;20.20;;;8.70;99.90;;;;;;5051702;28;20239;-79
2022/01/13 02:21:35;;;;;;;52.10;19.87;;;8.70;99.90;;;;;;5068836;28;20253;-80
2022/01/13 02:24:02;;;;;;;55.13;20.87;;;8.70;99.90;;;;;;5013820;28;20825;-80
2022/01/13 02:26:29;;;;;;;62.80;20.43;;;8.70;99.90;;;;;;5044928;28;20219;-80
2022/01/13 02:28:56;;;;;;;55.90;21.80;;;8.70;99.90;;;;;;5050971;28;20228;-81
2022/01/13 02:31:24;;;;;;;60.03;21.10;;;8.70;99.90;;;;;;5050318;28;20267;-80
2022/01/13 02:33:50;;;;;;;57.10;21.53;;;8.70;99.90;;;;;;5051163;28;21145;-80
2022/01/13 02:36:19;;;;;;;53.33;20.97;;;8.70;99.90;;;;;;5070712;28;20231;-79
2022/01/13 02:38:49;;;;;;;50.83;21.20;;;8.70;99.90;;;;;;5053360;28;20227;-79
2022/01/13 02:41:16;;;;;;;55.73;21.03;;;8.70;99.90;;;;;;5069925;28;20227;-79
2022/01/13 02:43:44;;;;;;;50.23;20.20;;;8.70;99.90;;;;;;5069088;28;20227;-79
2022/01/13 02:46:31;;;;;;;51.10;21.27;;;8.70;99.90;;;;;;5056035;28;20287;-79
2022/01/13 02:48:59;;;;;;;51.73;20.23;;;8.70;99.90;;;;;;5055115;28;20579;-79
2022/01/13 02:51:26;;;;;;;65.67;21.90;;;8.70;99.90;;;;;;5066814;28;20237;-78
2022/01/13 02:53:55;;;;;;;145.67;25.07;;;8.80;99.90;;;;;;5049130;28;20286;-79
2022/01/13 02:56:21;;;;;;;54.07;21.57;;;8.80;99.90;;;;;;5058907;28;20226;-79
2022/01/13 02:58:48;;;;;;;60.53;21.07;;;8.80;99.90;;;;;;5054719;28;20228;-78
2022/01/13 03:01:15;;;;;;;80.73;23.40;;;8.80;99.90;;;;;;5059146;28;20238;-79
2022/01/13 03:03:43;;;;;;;55.17;21.87;;;8.80;99.90;;;;;;5042782;28;20227;-78
2022/01/13 03:06:12;;;;;;;57.23;22.03;;;8.80;99.90;;;;;;5044060;28;20219;-78
2022/01/13 03:08:42;;;;;;;59.20;22.07;;;8.80;99.90;;;;;;5067731;28;20320;-78
2022/01/13 03:11:11;;;;;;;49.07;21.67;;;8.80;99.90;;;;;;5066568;28;20255;-78
2022/01/13 03:13:37;;;;;;;49.77;21.03;;;8.80;99.90;;;;;;5065418;28;20324;-78
2022/01/13 03:16:07;;;;;;;47.47;20.43;;;8.80;99.90;;;;;;5068187;28;20227;-79
2022/01/13 03:18:34;;;;;;;49.60;20.10;;;8.80;99.90;;;;;;5042973;28;20863;-79
2022/01/13 03:21:01;;;;;;;59.93;20.80;;;8.80;99.90;;;;;;5069187;28;20235;-79
2022/01/13 03:23:28;;;;;;;51.07;21.33;;;8.80;99.90;;;;;;5058499;28;20546;-79
2022/01/13 03:25:54;;;;;;;49.20;18.97;;;8.80;99.90;;;;;;5050887;28;20240;-79
2022/01/13 03:28:30;;;;;;;45.43;19.80;;;8.80;99.90;;;;;;5053479;28;20314;-79
2022/01/13 03:30:59;;;;;;;52.60;20.27;;;8.90;99.90;;;;;;5070781;28;20239;-79
2022/01/13 03:33:27;;;;;;;47.47;20.73;;;8.90;99.90;;;;;;5051975;28;20232;-79
2022/01/13 03:35:54;;;;;;;45.20;20.20;;;8.90;99.90;;;;;;5070801;28;20726;-80
2022/01/13 03:38:21;;;;;;;47.43;20.80;;;8.90;99.90;;;;;;5053719;28;20232;-79
2022/01/13 03:40:47;;;;;;;44.80;20.33;;;8.90;99.90;;;;;;5072067;28;20232;-80
2022/01/13 03:43:16;;;;;;;46.93;20.13;;;8.90;99.90;;;;;;5070592;28;20231;-81
2022/01/13 03:45:45;;;;;;;63.80;20.73;;;8.90;99.90;;;;;;5072036;28;20285;-80
2022/01/13 03:48:13;;;;;;;45.37;19.87;;;9.00;99.90;;;;;;5069935;28;20239;-80
2022/01/13 03:50:40;;;;;;;44.00;19.87;;;9.00;99.90;;;;;;5072491;28;20559;-80
2022/01/13 03:53:43;;;;;;;45.30;19.53;;;9.00;99.90;;;;;;5052881;28;20237;-80
2022/01/13 03:57:12;;;;;;;43.83;19.03;;;9.00;99.90;;;;;;5072790;28;20320;-80
2022/01/13 04:00:19;;;;;;;42.87;19.40;;;9.00;99.90;;;;;;5072981;28;20257;-80
2022/01/13 04:02:47;;;;;;;41.83;18.37;;;9.00;99.90;;;;;;5073006;28;20712;-80
2022/01/13 04:05:14;;;;;;;42.37;18.97;;;9.00;99.90;;;;;;5073350;28;20367;-81
2022/01/13 04:07:41;;;;;;;39.57;17.83;;;9.00;99.90;;;;;;5055911;28;20232;-81
2022/01/13 04:10:40;;;;;;;42.70;18.93;;;9.00;99.90;;;;;;5056024;28;20704;-81
2022/01/13 04:13:21;;;;;;;40.27;18.60;;;9.00;99.90;;;;;;5032504;28;20289;-80
2022/01/13 04:15:48;;;;;;;39.27;18.43;;;9.10;99.90;;;;;;5032995;28;20233;-82
2022/01/13 04:18:16;;;;;;;46.00;19.63;;;9.10;99.90;;;;;;5056163;28;20715;-79
2022/01/13 04:20:43;;;;;;;42.40;17.90;;;9.10;99.90;;;;;;5065488;28;21017;-78
2022/01/13 04:23:09;;;;;;;40.50;19.23;;;9.10;99.90;;;;;;5065936;28;20236;-78
2022/01/13 04:25:36;;;;;;;43.23;19.90;;;9.10;99.90;;;;;;5066239;28;20236;-78
2022/01/13 04:28:04;;;;;;;45.30;19.57;;;9.10;99.90;;;;;;5066902;28;20227;-79
2022/01/13 04:30:45;;;;;;;41.47;19.53;;;9.10;99.90;;;;;;5067276;28;20766;-79
2022/01/13 04:33:12;;;;;;;36.07;19.07;;;9.10;99.90;;;;;;5064445;28;20750;-78
2022/01/13 04:35:41;;;;;;;41.23;19.70;;;9.10;99.90;;;;;;5066539;28;20239;-78
2022/01/13 04:38:08;;;;;;;39.97;18.73;;;9.10;99.90;;;;;;5066721;28;20280;-79
2022/01/13 04:40:36;;;;;;;35.67;17.70;;;9.10;99.90;;;;;;5048716;28;20324;-79
2022/01/13 04:43:02;;;;;;;35.60;18.73;;;9.00;99.90;;;;;;5066746;28;20292;-79
2022/01/13 04:45:29;;;;;;;37.67;18.13;;;9.10;99.90;;;;;;5066196;28;20248;-79
2022/01/13 04:47:57;;;;;;;32.93;17.53;;;9.10;99.90;;;;;;5066100;28;20894;-79
2022/01/13 04:50:24;;;;;;;38.13;17.13;;;9.10;99.90;;;;;;5067145;28;20240;-79
2022/01/13 04:52:52;;;;;;;34.53;17.60;;;9.10;99.90;;;;;;5066632;28;20246;-79
2022/01/13 04:55:24;;;;;;;38.57;18.67;;;9.10;99.90;;;;;;5064995;28;20345;-79
2022/01/13 04:57:53;;;;;;;40.60;19.27;;;9.10;99.90;;;;;;5047999;28;20984;-79
2022/01/13 05:00:20;;;;;;;39.33;17.93;;;9.10;99.90;;;;;;5065798;28;20243;-79
2022/01/13 05:02:47;;;;;;;36.87;18.23;;;9.10;99.90;;;;;;5066167;28;20255;-79
2022/01/13 05:05:13;;;;;;;43.57;19.40;;;9.10;99.90;;;;;;5065167;28;20322;-78
2022/01/13 05:07:41;;;;;;;40.00;18.97;;;9.10;99.90;;;;;;5066482;28;20249;-79
2022/01/13 05:10:09;;;;;;;41.00;18.27;;;9.10;99.90;;;;;;5068344;28;20228;-80
2022/01/13 05:12:41;;;;;;;32.80;17.07;;;9.10;99.90;;;;;;5055984;28;20255;-81
2022/01/13 05:15:11;;;;;;;40.17;18.43;;;9.10;99.90;;;;;;5046390;28;20237;-81
2022/01/13 05:20:45;;;;;;;36.30;17.67;;;9.10;99.90;;;;;;5056545;28;20263;-81
2022/01/13 05:23:12;;;;;;;36.67;18.10;;;9.10;99.90;;;;;;5027037;28;20234;-82
2022/01/13 05:25:42;;;;;;;41.30;18.53;;;9.10;99.90;;;;;;5058800;28;20236;-78
2022/01/13 05:28:09;;;;;;;38.23;17.87;;;9.10;99.90;;;;;;5045155;28;20238;-79
2022/01/13 05:30:36;;;;;;;45.70;18.33;;;9.10;99.90;;;;;;5055443;28;20239;-80
2022/01/13 05:33:03;;;;;;;45.23;17.50;;;9.10;99.90;;;;;;5044463;28;20227;-83
2022/01/13 05:35:30;;;;;;;34.50;17.43;;;9.10;99.90;;;;;;5048431;28;20335;-85
2022/01/13 05:37:57;;;;;;;64.90;17.87;;;9.10;99.90;;;;;;5036435;28;20221;-85
2022/01/13 05:40:24;;;;;;;62.03;18.73;;;9.10;99.90;;;;;;5055625;28;20717;-84
2022/01/13 05:42:52;;;;;;;51.50;17.03;;;9.10;99.90;;;;;;5027972;28;20259;-84
2022/01/13 05:45:21;;;;;;;43.93;17.47;;;9.10;99.90;;;;;;5046633;28;20702;-84
2022/01/13 05:47:50;;;;;;;39.40;17.60;;;9.10;99.90;;;;;;5053769;28;20852;-83
2022/01/13 05:50:18;;;;;;;68.23;18.93;;;9.10;99.90;;;;;;5032089;28;20311;-85
2022/01/13 05:52:45;;;;;;;40.93;16.80;;;9.10;99.90;;;;;;5053315;28;20239;-84
2022/01/13 05:55:13;;;;;;;37.60;18.20;;;9.20;99.90;;;;;;5063315;28;20315;-84
2022/01/13 05:57:39;;;;;;;51.57;18.03;;;9.20;99.90;;;;;;5063926;28;20315;-83
2022/01/13 06:00:10;;;;;;;41.13;18.47;;;9.20;99.90;;;;;;5055234;28;20285;-84
2022/01/13 06:02:40;;;;;;;35.10;17.80;;;9.20;99.90;;;;;;5038621;28;20242;-84
2022/01/13 06:05:08;;;;;;;37.57;18.37;;;9.20;99.90;;;;;;5028741;28;20239;-85
2022/01/13 06:07:35;;;;;;;48.13;19.50;;;9.20;99.90;;;;;;5035598;28;20896;-82
2022/01/13 06:10:03;;;;;;;38.33;17.57;;;9.30;99.90;;;;;;5051994;28;20232;-85
2022/01/13 06:12:36;;;;;;;39.73;18.53;;;9.30;99.90;;;;;;5021470;28;20753;-82
2022/01/13 06:15:06;;;;;;;42.13;19.57;;;9.30;99.90;;;;;;5049292;28;20218;-82
2022/01/13 06:17:34;;;;;;;37.97;18.23;;;9.30;99.90;;;;;;5032144;28;20240;-82
2022/01/13 06:20:01;;;;;;;37.13;18.97;;;9.30;99.90;;;;;;5048172;28;20244;-82
2022/01/13 06:22:28;;;;;;;35.57;18.77;;;9.30;99.90;;;;;;5030799;28;20328;-82
2022/01/13 06:24:55;;;;;;;36.17;18.83;;;9.30;99.90;;;;;;5031366;28;20233;-82
2022/01/13 06:27:22;;;;;;;40.83;19.43;;;9.30;99.90;;;;;;5048712;28;20324;-81
2022/01/13 06:29:50;;;;;;;36.37;18.97;;;9.40;99.90;;;;;;5030868;28;20780;-82
2022/01/13 06:32:18;;;;;;;41.03;19.83;;;9.40;99.90;;;;;;5050087;28;20240;-82
2022/01/13 06:34:46;;;;;;;36.60;18.90;;;9.40;99.90;;;;;;5032624;28;20333;-82
2022/01/13 06:37:13;;;;;;;40.37;19.60;;;9.40;99.90;;;;;;5070243;28;20730;-82
2022/01/13 06:39:39;;;;;;;48.73;21.33;;;9.40;99.90;;;;;;5051420;28;20238;-82
2022/01/13 06:42:07;;;;;;;38.20;19.70;;;9.40;99.90;;;;;;5069865;28;20323;-82
2022/01/13 06:44:34;;;;;;;40.50;20.23;;;9.40;99.90;;;;;;5049621;28;20318;-82
2022/01/13 06:47:00;;;;;;;41.53;20.30;;;9.40;99.90;;;;;;5069944;28;20250;-83
2022/01/13 06:49:27;;;;;;;38.13;20.07;;;9.40;99.90;;;;;;5050457;28;20263;-81
2022/01/13 06:51:55;;;;;;;37.30;19.60;;;9.40;99.90;;;;;;5069460;28;20233;-82
2022/01/13 06:54:23;;;;;;;39.00;19.43;;;9.50;99.90;;;;;;5047367;28;20235;-82
2022/01/13 06:56:50;;;;;;;42.13;20.10;;;9.50;99.90;;;;;;5050036;28;20255;-83
2022/01/13 06:59:17;;;;;;;45.67;20.67;;;9.50;99.90;;;;;;5049392;28;20722;-83
2022/01/13 07:01:44;;;;;;;43.03;20.60;;;9.50;99.90;;;;;;5067942;28;20290;-83
2022/01/13 07:04:12;;;;;;;41.80;19.83;;;9.50;99.90;;;;;;5048840;28;20981;-82
2022/01/13 07:06:40;;;;;;;38.03;20.03;;;9.60;99.90;;;;;;5049927;28;20235;-82
2022/01/13 07:09:10;;;;;;;38.30;19.57;;;9.60;99.90;;;;;;5050225;28;20239;-82
2022/01/13 07:11:37;;;;;;;36.93;19.70;;;9.50;99.90;;;;;;5067181;28;20236;-84
2022/01/13 07:14:05;;;;;;;39.23;19.87;;;9.60;99.90;;;;;;5032353;28;20234;-82
2022/01/13 07:16:32;;;;;;;42.93;21.13;;;9.60;99.90;;;;;;5045091;28;20246;-82
2022/01/13 07:18:58;;;;;;;36.60;19.00;;;9.60;99.90;;;;;;5058940;28;20247;-82
2022/01/13 07:21:27;;;;;;;44.60;18.90;;;9.60;99.90;;;;;;5039185;28;20233;-81
2022/01/13 07:23:54;;;;;;;38.10;19.57;;;9.60;99.90;;;;;;5037531;28;22181;-82
2022/01/13 07:26:22;;;;;;;37.50;19.63;;;9.60;99.90;;;;;;5033986;28;20847;-81
2022/01/13 07:28:49;;;;;;;38.30;19.93;;;9.60;99.90;;;;;;5040686;28;20234;-81
2022/01/13 07:31:17;;;;;;;36.70;18.30;;;9.60;99.90;;;;;;5062370;28;20225;-81
2022/01/13 07:33:45;;;;;;;34.83;18.13;;;9.60;99.90;;;;;;5051515;28;20646;-81
2022/01/13 07:36:11;;;;;;;34.30;18.13;;;9.70;99.90;;;;;;5060052;28;20240;-82
2022/01/13 07:38:38;;;;;;;33.97;18.30;;;9.70;99.90;;;;;;5033658;28;20244;-82
2022/01/13 07:41:05;;;;;;;34.40;17.90;;;9.70;99.90;;;;;;5032111;28;20255;-82
2022/01/13 07:43:33;;;;;;;35.23;18.37;;;9.70;99.90;;;;;;5032990;28;20655;-82
2022/01/13 07:46:00;;;;;;;34.80;17.33;;;9.70;99.90;;;;;;5031967;28;20405;-83
2022/01/13 07:48:27;;;;;;;36.83;17.83;;;9.70;99.90;;;;;;5050295;28;20229;-82
2022/01/13 07:50:54;;;;;;;33.80;16.97;;;9.70;99.90;;;;;;5070562;28;20308;-83
2022/01/13 07:53:21;;;;;;;35.53;16.77;;;9.70;99.90;;;;;;5068777;28;20236;-82
2022/01/13 07:55:49;;;;;;;34.70;16.50;;;9.70;99.90;;;;;;5051635;28;20236;-82
2022/01/13 07:58:16;;;;;;;32.00;16.87;;;9.70;99.90;;;;;;5069662;28;20233;-82
2022/01/13 08:00:44;;;;;;;32.77;17.17;;;9.70;99.90;;;;;;5034494;28;20326;-81
2022/01/13 08:03:11;;;;;;;29.67;16.60;;;9.70;99.90;;;;;;5032106;28;20230;-82
2022/01/13 08:05:38;;;;;;;37.07;17.50;;;9.80;99.90;;;;;;5068992;28;20239;-83
2022/01/13 08:08:05;;;;;;;32.67;16.60;;;9.80;99.90;;;;;;5071161;28;20255;-81
2022/01/13 08:10:32;;;;;;;30.73;15.67;;;9.80;99.90;;;;;;5052896;28;20899;-82
2022/01/13 08:12:58;;;;;;;31.63;16.90;;;9.80;99.90;;;;;;5070109;28;20259;-82
2022/01/13 08:15:26;;;;;;;34.27;17.03;;;9.80;99.90;;;;;;5071549;28;20705;-82
2022/01/13 08:20:39;;;;;;;31.90;16.93;;;9.80;99.90;;;;;;5052901;28;20306;-82
2022/01/13 08:23:06;;;;;;;32.83;16.70;;;9.80;99.90;;;;;;5070554;28;20776;-81
2022/01/13 08:25:33;;;;;;;33.17;16.40;;;9.80;99.90;;;;;;5070469;28;20655;-82
2022/01/13 08:28:00;;;;;;;31.70;17.03;;;9.80;99.90;;;;;;5070226;28;20312;-82
2022/01/13 08:30:26;;;;;;;32.20;16.00;;;9.80;99.90;;;;;;5051711;28;20232;-82
2022/01/13 08:32:54;;;;;;;35.90;17.73;;;9.80;99.90;;;;;;5059529;28;20235;-82
2022/01/13 08:35:21;;;;;;;31.73;17.80;;;9.80;99.90;;;;;;5043901;28;20232;-82
2022/01/13 08:37:48;;;;;;;31.37;16.63;;;9.80;99.90;;;;;;5054193;28;20716;-82
2022/01/13 08:40:15;;;;;;;32.63;17.00;;;9.80;99.90;;;;;;5070452;28;20291;-82
2022/01/13 08:42:42;;;;;;;29.97;16.60;;;9.80;99.90;;;;;;5051497;28;20233;-82
2022/01/13 08:45:11;;;;;;;33.67;17.83;;;9.80;99.90;;;;;;5069600;28;20239;-82
2022/01/13 08:47:38;;;;;;;29.73;16.50;;;9.80;99.90;;;;;;5032797;28;20248;-82
2022/01/13 08:50:08;;;;;;;31.43;16.37;;;9.80;99.90;;;;;;5051483;28;20237;-82
2022/01/13 08:52:37;;;;;;;32.37;16.87;;;9.80;99.90;;;;;;5044847;28;20329;-84
2022/01/13 08:55:05;;;;;;;33.73;16.57;;;9.80;99.90;;;;;;5032815;28;20220;-79
2022/01/13 08:57:32;;;;;;;34.43;16.87;;;9.80;99.90;;;;;;5037428;28;20904;-80
2022/01/13 08:59:59;;;;;;;33.43;17.67;;;9.80;99.90;;;;;;5052840;28;20303;-80
2022/01/13 09:02:29;;;;;;;35.17;18.73;;;9.80;99.90;;;;;;5050249;28;20234;-80
2022/01/13 09:04:56;;;;;;;32.60;17.67;;;9.80;99.90;;;;;;5058200;28;20213;-80
2022/01/13 09:07:24;;;;;;;37.27;17.57;;;9.70;99.90;;;;;;5035360;28;20228;-81
2022/01/13 09:09:51;;;;;;;36.20;18.83;;;9.70;99.90;;;;;;5018334;28;20259;-80
2022/01/13 09:12:17;;;;;;;34.87;19.43;;;9.70;99.90;;;;;;5038990;28;20224;-80
2022/01/13 09:14:44;;;;;;;36.30;18.63;;;9.70;99.90;;;;;;5048844;28;20819;-81
2022/01/13 09:17:19;;;;;;;33.00;17.50;;;9.70;99.90;;;;;;5042748;28;20260;-80
2022/01/13 09:19:46;;;;;;;36.07;19.00;;;9.70;99.90;;;;;;5046552;28;20225;-81
2022/01/13 09:22:13;;;;;;;37.30;19.97;;;9.70;99.90;;;;;;5048992;28;20226;-81
2022/01/13 09:24:41;;;;;;;38.97;20.10;;;9.70;99.90;;;;;;5036049;28;20256;-81
2022/01/13 09:27:08;;;;;;;33.63;17.37;;;9.60;99.90;;;;;;5035392;28;20229;-81
2022/01/13 09:29:35;;;;;;;38.17;20.17;;;9.60;99.90;;;;;;5036338;28;20238;-81
2022/01/13 09:32:02;;;;;;;34.47;19.70;;;9.60;99.90;;;;;;5031056;28;20769;-80
2022/01/13 09:34:28;;;;;;;33.37;18.30;;;9.60;99.90;;;;;;5041879;28;20229;-81
2022/01/13 09:36:55;;;;;;;32.57;17.30;;;9.60;99.90;;;;;;5029613;28;20225;-81
2022/01/13 09:39:22;;;;;;;30.67;16.37;;;9.60;99.90;;;;;;5026364;28;20642;-80
2022/01/13 09:41:52;;;;;;;28.93;16.97;;;9.50;99.90;;;;;;5035474;28;20588;-79
2022/01/13 09:44:19;;;;;;;30.00;16.43;;;9.50;99.90;;;;;;5063681;28;20237;-83
2022/01/13 09:46:47;;;;;;;29.60;16.80;;;9.50;99.90;;;;;;5025557;28;20732;-84
2022/01/13 09:49:14;;;;;;;32.03;17.23;;;9.50;99.90;;;;;;5039209;28;20222;-85
2022/01/13 09:51:45;;;;;;;29.07;15.80;;;9.50;99.90;;;;;;5026283;28;20311;-84
2022/01/13 09:54:12;;;;;;;29.87;16.93;;;9.50;99.90;;;;;;5025671;28;20691;-85
2022/01/13 09:56:39;;;;;;;34.07;17.30;;;9.50;99.90;;;;;;5042086;28;20630;-84
2022/01/13 09:59:08;;;;;;;30.40;16.97;;;9.50;99.90;;;;;;5025490;28;20229;-85
2022/01/13 10:01:35;;;;;;;33.63;17.40;;;9.50;99.90;;;;;;5031270;28;20241;-83
2022/01/13 10:04:02;;;;;;;31.60;17.33;;;9.50;99.90;;;;;;5036841;28;20229;-84
2022/01/13 10:06:29;;;;;;;29.47;17.37;;;9.50;99.90;;;;;;5043430;28;20315;-85
2022/01/13 10:08:58;;;;;;;32.37;16.87;;;9.50;99.90;;;;;;5045468;28;20233;-84
2022/01/13 10:11:35;;;;;;;31.73;17.97;;;9.50;99.90;;;;;;5060491;28;20224;-84
2022/01/13 10:14:14;;;;;;;31.77;16.73;;;9.50;99.90;;;;;;5047956;28;20225;-85
2022/01/13 10:16:47;;;;;;;31.50;17.23;;;9.50;99.90;;;;;;5044571;28;20236;-85
2022/01/13 10:19:28;;;;;;;31.60;16.10;;;9.50;99.90;;;;;;5037633;28;20592;-85
2022/01/13 10:21:57;;;;;;;28.63;16.00;;;9.50;99.90;;;;;;5039951;28;20262;-84
2022/01/13 10:24:26;;;;;;;32.03;16.93;;;9.50;99.90;;;;;;5027725;28;20233;-85
2022/01/13 10:27:06;;;;;;;34.93;17.70;;;9.50;99.90;;;;;;5032905;28;20878;-85
2022/01/13 10:29:46;;;;;;;28.83;16.23;;;9.50;99.90;;;;;;5030221;28;20247;-84
2022/01/13 10:32:15;;;;;;;27.37;16.13;;;9.50;99.90;;;;;;5027891;28;20233;-84
2022/01/13 10:34:45;;;;;;;31.50;16.77;;;9.60;99.90;;;;;;5032641;28;20316;-85
2022/01/13 10:37:14;;;;;;;30.10;16.40;;;9.60;99.90;;;;;;5021550;28;20242;-85
2022/01/13 10:39:50;;;;;;;30.20;15.40;;;9.60;99.90;;;;;;5046765;28;20235;-80
2022/01/13 10:42:45;;;;;;;30.33;15.97;;;9.60;99.90;;;;;;5063696;28;20231;-82
2022/01/13 10:45:17;;;;;;;30.97;14.97;;;9.60;99.90;;;;;;5011144;28;20241;-81
2022/01/13 10:47:51;;;;;;;28.07;16.37;;;9.60;99.90;;;;;;5034163;28;20254;-81
2022/01/13 10:50:18;;;;;;;30.23;15.63;;;9.60;99.90;;;;;;5029362;28;20684;-78
2022/01/13 10:52:45;;;;;;;28.17;15.07;;;9.60;99.90;;;;;;5041269;28;20242;-79
2022/01/13 10:55:17;;;;;;;29.77;14.77;;;9.60;99.90;;;;;;5021408;28;20751;-77
2022/01/13 10:57:45;;;;;;;29.57;14.50;;;9.60;99.90;;;;;;5046514;28;20248;-79
2022/01/13 11:00:22;;;;;;;27.30;15.30;;;9.60;99.90;;;;;;5040853;28;20229;-78
2022/01/13 11:03:03;;;;;;;28.17;13.97;;;9.60;99.90;;;;;;5029651;28;20238;-78
2022/01/13 11:05:31;;;;;;;29.93;14.43;;;9.60;99.90;;;;;;5028317;28;20238;-78
2022/01/13 11:07:58;;;;;;;30.00;15.07;;;9.60;99.90;;;;;;5043856;28;20299;-80
2022/01/13 11:10:35;;;;;;;30.57;14.80;;;9.60;99.90;;;;;;5040537;28;20227;-82
2022/01/13 11:13:04;;;;;;;29.63;15.50;;;9.60;99.90;;;;;;5066474;28;20225;-78
2022/01/13 11:15:34;;;;;;;30.83;15.20;;;9.60;99.90;;;;;;5028460;28;20326;-77
2022/01/13 11:18:01;;;;;;;29.13;15.27;;;9.60;99.90;;;;;;5045270;28;20225;-77
2022/01/13 11:20:30;;;;;;;29.70;16.03;;;9.60;99.90;;;;;;5060986;28;20590;-78
2022/01/13 11:22:58;;;;;;;33.30;15.70;;;9.60;99.90;;;;;;5050502;28;20701;-79
2022/01/13 11:25:27;;;;;;;28.77;14.97;;;9.60;99.90;;;;;;5036199;28;20804;-78
2022/01/13 11:27:56;;;;;;;32.70;16.60;;;9.60;99.90;;;;;;5050838;28;20635;-77
2022/01/13 11:30:25;;;;;;;34.27;17.37;;;9.60;99.90;;;;;;5023452;28;20226;-78
2022/01/13 11:32:55;;;;;;;32.67;16.30;;;9.60;99.90;;;;;;5047176;28;20228;-77
2022/01/13 11:35:25;;;;;;;27.47;15.43;;;9.60;99.90;;;;;;5045681;28;20218;-78
2022/01/13 11:37:53;;;;;;;27.60;16.33;;;9.60;99.90;;;;;;5026171;28;20267;-78
2022/01/13 11:40:38;;;;;;;29.67;15.07;;;9.60;99.90;;;;;;5047659;28;20679;-79
2022/01/13 11:43:07;;;;;;;31.87;16.40;;;9.60;99.90;;;;;;5038925;28;20741;-78
2022/01/13 11:45:40;;;;;;;32.73;15.60;;;9.60;99.90;;;;;;5052919;28;20261;-78
2022/01/13 11:48:15;;;;;;;30.47;16.87;;;9.60;99.90;;;;;;5037700;28;20225;-78
2022/01/13 11:50:47;;;;;;;30.13;15.67;;;9.60;99.90;;;;;;5048708;28;20332;-78
2022/01/13 11:53:23;;;;;;;28.13;15.53;;;9.60;99.90;;;;;;5049718;28;20228;-78
2022/01/13 11:55:56;;;;;;;31.37;15.13;;;9.60;99.90;;;;;;5053951;28;20236;-78
2022/01/13 11:58:26;;;;;;;31.57;16.10;;;9.60;99.90;;;;;;5044675;28;20226;-78
2022/01/13 12:00:54;;;;;;;30.67;16.87;;;9.60;99.90;;;;;;5020608;28;20319;-78
2022/01/13 12:03:31;;;;;;;30.83;16.40;;;9.70;99.90;;;;;;5045291;28;20227;-78
2022/01/13 12:06:00;;;;;;;29.47;16.77;;;9.70;99.90;;;;;;5044740;28;20786;-78
2022/01/13 12:08:45;;;;;;;29.47;14.90;;;9.70;99.90;;;;;;5048146;28;21027;-78
2022/01/13 12:11:45;;;;;;;28.80;16.13;;;9.70;99.90;;;;;;5057076;28;20274;-78
2022/01/13 12:14:38;;;;;;;30.43;15.80;;;9.70;99.90;;;;;;5047115;28;20236;-77
2022/01/13 12:17:09;;;;;;;27.67;15.27;;;9.70;99.90;;;;;;5042017;28;20741;-78
2022/01/13 12:19:40;;;;;;;29.00;16.30;;;9.80;99.90;;;;;;5027875;28;20236;-77
2022/01/13 12:22:11;;;;;;;28.67;15.57;;;9.80;99.90;;;;;;5044884;28;20259;-77
2022/01/13 12:24:50;;;;;;;29.47;15.77;;;9.80;99.90;;;;;;5048446;28;20338;-77
2022/01/13 12:27:20;;;;;;;27.53;15.13;;;9.80;99.90;;;;;;5040828;28;20316;-77
2022/01/13 12:29:49;;;;;;;30.40;16.20;;;9.80;99.90;;;;;;5032154;28;20223;-77
2022/01/13 12:32:18;;;;;;;30.13;14.83;;;9.80;99.90;;;;;;5031966;28;20217;-77
2022/01/13 12:34:50;;;;;;;28.83;15.30;;;9.90;99.90;;;;;;5042808;28;20317;-77
2022/01/13 12:37:28;;;;;;;27.43;14.77;;;9.90;99.90;;;;;;5037344;28;20221;-77
2022/01/13 12:40:05;;;;;;;26.93;14.97;;;9.90;99.90;;;;;;5054698;28;20239;-77
2022/01/13 12:42:39;;;;;;;27.70;15.33;;;9.90;99.90;;;;;;5047603;28;20247;-77
2022/01/13 12:47:52;;;;;;;24.03;13.57;;;9.90;99.90;;;;;;5048839;28;20368;-77
2022/01/13 12:50:23;;;;;;;27.50;14.10;;;9.90;99.90;;;;;;5047275;28;20226;-76
2022/01/13 12:52:51;;;;;;;27.30;14.83;;;9.90;99.90;;;;;;5055044;28;20229;-77
2022/01/13 12:55:19;;;;;;;25.63;14.10;;;9.90;99.90;;;;;;5042892;28;20223;-77
2022/01/13 12:57:50;;;;;;;30.30;15.63;;;9.80;99.90;;;;;;5042185;28;20676;-77
2022/01/13 13:00:20;;;;;;;27.70;15.20;;;9.90;99.90;;;;;;5041305;28;20242;-77